Ana Sayfa
METAR-TAF:

METAR-TAF

Havaalanları :

Watauga County Hospital Heliport

Boone, Kuzey Carolina, Amerika Birleşik Devletleri

Enlem: 36-12N, Boylam: 081-39W, yükseklik: 959 m

Güncel hava durumu gözlemi

Rapor saat 05:50 UTC de 35 dakika önce yapıldı.
Rüzgar batı/kuzeybatıdan 5 kt
Sıcaklık -6°C
Nem 93%
Basınç 1023 hPa
Görüş mesafesi: 4.8 km
hafif kar

METAR: KTNB 220550Z AUTO 30005KT 3SM -SN M06/M07 A3020 RMK AO2 T10641075 11052 21066

Saat: 01:25 (06:25 UTC)


TAF: eksik

4.000'den fazla havaalanı için hava durumu gözlemleri ve tahminleri (METAR ve TAF raporları).

Kullanılabilir istasyonlar harita üzerinde sarı ve kırmızı noktalarla gösterilir.

İstasyonun adını görmek için fareyi noktanın üzerinde gezdirin.

Sonrasında hava gözlem ve tahminlerini görmek için tıklayın.

Haritayı değiştirmek için: yaklaştırmak için siyah artı işaretli yeşil düğmeye ve uzaklaştırmak için de eksi işaretli düğmeye hızla tıklayın; bitişik haritalar için yeşil okları kullanın.


METAR-TAF: